sensor_id;sensor_type;location;lat;lon;timestamp;P1;durP1;ratioP1;P2;durP2;ratioP2
56171;SDS011;42052;41.634;-0.946;2023-03-21T00:01:54;3.60;;;2.20;;
56171;SDS011;42052;41.634;-0.946;2023-03-21T00:04:40;2.80;;;2.13;;
56171;SDS011;42052;41.634;-0.946;2023-03-21T00:07:26;2.83;;;2.03;;
56171;SDS011;42052;41.634;-0.946;2023-03-21T00:10:12;2.58;;;2.00;;
56171;SDS011;42052;41.634;-0.946;2023-03-21T00:12:59;2.65;;;1.90;;
56171;SDS011;42052;41.634;-0.946;2023-03-21T00:15:45;2.35;;;1.80;;
56171;SDS011;42052;41.634;-0.946;2023-03-21T00:18:35;3.85;;;2.28;;
56171;SDS011;42052;41.634;-0.946;2023-03-21T00:21:26;3.05;;;1.90;;
56171;SDS011;42052;41.634;-0.946;2023-03-21T00:24:16;2.72;;;1.75;;
56171;SDS011;42052;41.634;-0.946;2023-03-21T00:27:03;2.42;;;1.70;;
56171;SDS011;42052;41.634;-0.946;2023-03-21T00:29:49;2.80;;;1.80;;
56171;SDS011;42052;41.634;-0.946;2023-03-21T00:32:36;2.72;;;1.60;;
56171;SDS011;42052;41.634;-0.946;2023-03-21T00:35:22;2.80;;;1.70;;
56171;SDS011;42052;41.634;-0.946;2023-03-21T00:38:08;2.55;;;1.73;;
56171;SDS011;42052;41.634;-0.946;2023-03-21T00:40:55;2.30;;;1.50;;
56171;SDS011;42052;41.634;-0.946;2023-03-21T00:43:41;2.17;;;1.60;;
56171;SDS011;42052;41.634;-0.946;2023-03-21T00:46:28;2.20;;;1.77;;
56171;SDS011;42052;41.634;-0.946;2023-03-21T00:49:14;2.33;;;1.27;;
56171;SDS011;42052;41.634;-0.946;2023-03-21T00:52:00;2.00;;;1.60;;
56171;SDS011;42052;41.634;-0.946;2023-03-21T00:54:49;2.45;;;1.70;;
56171;SDS011;42052;41.634;-0.946;2023-03-21T00:57:35;2.10;;;1.58;;
56171;SDS011;42052;41.634;-0.946;2023-03-21T01:00:21;2.47;;;1.67;;
56171;SDS011;42052;41.634;-0.946;2023-03-21T01:03:10;1.70;;;1.48;;
56171;SDS011;42052;41.634;-0.946;2023-03-21T01:05:57;2.17;;;1.60;;
56171;SDS011;42052;41.634;-0.946;2023-03-21T01:08:51;3.17;;;1.80;;
56171;SDS011;42052;41.634;-0.946;2023-03-21T01:11:38;2.42;;;1.50;;
56171;SDS011;42052;41.634;-0.946;2023-03-21T01:14:24;1.92;;;1.45;;
56171;SDS011;42052;41.634;-0.946;2023-03-21T01:17:10;1.88;;;1.40;;
56171;SDS011;42052;41.634;-0.946;2023-03-21T01:19:56;1.77;;;1.52;;
56171;SDS011;42052;41.634;-0.946;2023-03-21T01:22:42;1.40;;;1.15;;
56171;SDS011;42052;41.634;-0.946;2023-03-21T01:25:28;2.80;;;1.55;;
56171;SDS011;42052;41.634;-0.946;2023-03-21T01:28:15;1.40;;;1.25;;
56171;SDS011;42052;41.634;-0.946;2023-03-21T01:31:01;1.92;;;1.30;;
56171;SDS011;42052;41.634;-0.946;2023-03-21T01:33:49;2.03;;;1.17;;
56171;SDS011;42052;41.634;-0.946;2023-03-21T01:36:35;3.38;;;1.27;;
56171;SDS011;42052;41.634;-0.946;2023-03-21T01:39:22;2.03;;;1.55;;
56171;SDS011;42052;41.634;-0.946;2023-03-21T01:42:11;1.83;;;1.30;;
56171;SDS011;42052;41.634;-0.946;2023-03-21T01:47:45;1.77;;;1.20;;
56171;SDS011;42052;41.634;-0.946;2023-03-21T01:50:31;1.73;;;1.20;;
56171;SDS011;42052;41.634;-0.946;2023-03-21T01:53:23;2.28;;;1.35;;
56171;SDS011;42052;41.634;-0.946;2023-03-21T01:56:19;2.08;;;1.20;;
56171;SDS011;42052;41.634;-0.946;2023-03-21T01:59:21;2.08;;;1.20;;
56171;SDS011;42052;41.634;-0.946;2023-03-21T02:02:14;1.33;;;1.23;;
56171;SDS011;42052;41.634;-0.946;2023-03-21T02:05:05;2.97;;;1.20;;
56171;SDS011;42052;41.634;-0.946;2023-03-21T02:07:51;1.83;;;1.10;;
56171;SDS011;42052;41.634;-0.946;2023-03-21T02:10:37;1.48;;;1.17;;
56171;SDS011;42052;41.634;-0.946;2023-03-21T02:13:25;2.28;;;1.08;;
56171;SDS011;42052;41.634;-0.946;2023-03-21T02:16:13;1.70;;;1.20;;
56171;SDS011;42052;41.634;-0.946;2023-03-21T02:19:25;2.35;;;1.35;;
56171;SDS011;42052;41.634;-0.946;2023-03-21T02:28:55;1.98;;;1.20;;
56171;SDS011;42052;41.634;-0.946;2023-03-21T02:35:50;1.42;;;1.20;;
56171;SDS011;42052;41.634;-0.946;2023-03-21T02:39:04;1.42;;;1.05;;
56171;SDS011;42052;41.634;-0.946;2023-03-21T02:45:10;2.22;;;1.27;;
56171;SDS011;42052;41.634;-0.946;2023-03-21T02:48:12;1.80;;;1.20;;
56171;SDS011;42052;41.634;-0.946;2023-03-21T02:51:04;1.45;;;1.10;;
56171;SDS011;42052;41.634;-0.946;2023-03-21T02:53:55;1.58;;;1.08;;
56171;SDS011;42052;41.634;-0.946;2023-03-21T02:56:45;1.15;;;1.00;;
56171;SDS011;42052;41.634;-0.946;2023-03-21T02:59:34;2.40;;;1.20;;
56171;SDS011;42052;41.634;-0.946;2023-03-21T03:02:24;1.27;;;1.08;;
56171;SDS011;42052;41.634;-0.946;2023-03-21T03:05:14;1.60;;;1.20;;
56171;SDS011;42052;41.634;-0.946;2023-03-21T03:08:09;1.33;;;1.17;;
56171;SDS011;42052;41.634;-0.946;2023-03-21T03:20:09;2.55;;;1.10;;
56171;SDS011;42052;41.634;-0.946;2023-03-21T03:26:11;2.97;;;1.40;;
56171;SDS011;42052;41.634;-0.946;2023-03-21T03:29:04;1.42;;;1.10;;
56171;SDS011;42052;41.634;-0.946;2023-03-21T03:32:05;2.33;;;1.20;;
56171;SDS011;42052;41.634;-0.946;2023-03-21T03:35:03;2.13;;;1.10;;
56171;SDS011;42052;41.634;-0.946;2023-03-21T03:37:55;1.67;;;1.30;;
56171;SDS011;42052;41.634;-0.946;2023-03-21T03:40:45;1.73;;;1.20;;
56171;SDS011;42052;41.634;-0.946;2023-03-21T03:43:42;1.33;;;0.90;;
56171;SDS011;42052;41.634;-0.946;2023-03-21T03:46:38;1.35;;;1.00;;
56171;SDS011;42052;41.634;-0.946;2023-03-21T03:49:30;1.52;;;1.00;;
56171;SDS011;42052;41.634;-0.946;2023-03-21T03:52:23;1.70;;;1.10;;
56171;SDS011;42052;41.634;-0.946;2023-03-21T03:55:15;1.25;;;1.00;;
56171;SDS011;42052;41.634;-0.946;2023-03-21T03:58:03;2.08;;;1.02;;
56171;SDS011;42052;41.634;-0.946;2023-03-21T04:00:50;2.15;;;0.90;;
56171;SDS011;42052;41.634;-0.946;2023-03-21T04:03:37;1.92;;;1.20;;
56171;SDS011;42052;41.634;-0.946;2023-03-21T04:06:25;1.42;;;0.90;;
56171;SDS011;42052;41.634;-0.946;2023-03-21T04:09:13;1.15;;;0.90;;
56171;SDS011;42052;41.634;-0.946;2023-03-21T04:12:01;1.00;;;0.90;;
56171;SDS011;42052;41.634;-0.946;2023-03-21T04:14:47;1.33;;;0.88;;
56171;SDS011;42052;41.634;-0.946;2023-03-21T04:17:33;1.52;;;1.00;;
56171;SDS011;42052;41.634;-0.946;2023-03-21T04:20:19;1.92;;;1.10;;
56171;SDS011;42052;41.634;-0.946;2023-03-21T04:23:05;1.15;;;0.90;;
56171;SDS011;42052;41.634;-0.946;2023-03-21T04:25:52;2.95;;;1.10;;
56171;SDS011;42052;41.634;-0.946;2023-03-21T04:28:38;1.15;;;1.00;;
56171;SDS011;42052;41.634;-0.946;2023-03-21T04:31:25;1.67;;;1.20;;
56171;SDS011;42052;41.634;-0.946;2023-03-21T04:34:15;1.40;;;1.02;;
56171;SDS011;42052;41.634;-0.946;2023-03-21T04:37:01;1.25;;;1.02;;
56171;SDS011;42052;41.634;-0.946;2023-03-21T04:39:55;1.58;;;1.10;;
56171;SDS011;42052;41.634;-0.946;2023-03-21T04:42:42;1.70;;;1.13;;
56171;SDS011;42052;41.634;-0.946;2023-03-21T04:45:28;2.28;;;1.20;;
56171;SDS011;42052;41.634;-0.946;2023-03-21T04:48:15;1.45;;;1.10;;
56171;SDS011;42052;41.634;-0.946;2023-03-21T04:51:03;1.63;;;1.00;;
56171;SDS011;42052;41.634;-0.946;2023-03-21T04:53:50;1.40;;;1.00;;
56171;SDS011;42052;41.634;-0.946;2023-03-21T04:56:36;2.08;;;1.05;;
56171;SDS011;42052;41.634;-0.946;2023-03-21T04:59:22;1.10;;;1.00;;
56171;SDS011;42052;41.634;-0.946;2023-03-21T05:02:09;1.20;;;1.10;;
56171;SDS011;42052;41.634;-0.946;2023-03-21T05:04:55;1.20;;;0.90;;
56171;SDS011;42052;41.634;-0.946;2023-03-21T05:07:41;1.27;;;1.10;;
56171;SDS011;42052;41.634;-0.946;2023-03-21T05:10:27;1.38;;;1.10;;
56171;SDS011;42052;41.634;-0.946;2023-03-21T05:13:14;2.88;;;1.10;;
56171;SDS011;42052;41.634;-0.946;2023-03-21T05:16:00;1.52;;;1.00;;
56171;SDS011;42052;41.634;-0.946;2023-03-21T05:18:46;1.48;;;1.10;;
56171;SDS011;42052;41.634;-0.946;2023-03-21T05:21:35;1.35;;;1.10;;
56171;SDS011;42052;41.634;-0.946;2023-03-21T05:24:25;1.10;;;0.90;;
56171;SDS011;42052;41.634;-0.946;2023-03-21T05:27:11;3.20;;;1.08;;
56171;SDS011;42052;41.634;-0.946;2023-03-21T05:30:03;1.80;;;1.10;;
56171;SDS011;42052;41.634;-0.946;2023-03-21T05:32:50;1.65;;;1.30;;
56171;SDS011;42052;41.634;-0.946;2023-03-21T05:35:36;2.65;;;1.10;;
56171;SDS011;42052;41.634;-0.946;2023-03-21T05:38:23;1.90;;;1.10;;
56171;SDS011;42052;41.634;-0.946;2023-03-21T05:41:10;4.20;;;1.10;;
56171;SDS011;42052;41.634;-0.946;2023-03-21T05:43:56;1.73;;;1.10;;
56171;SDS011;42052;41.634;-0.946;2023-03-21T05:46:43;1.98;;;1.17;;
56171;SDS011;42052;41.634;-0.946;2023-03-21T05:49:29;1.92;;;1.10;;
56171;SDS011;42052;41.634;-0.946;2023-03-21T05:52:15;1.83;;;1.20;;
56171;SDS011;42052;41.634;-0.946;2023-03-21T05:55:01;2.47;;;1.17;;
56171;SDS011;42052;41.634;-0.946;2023-03-21T05:57:48;1.23;;;1.10;;
56171;SDS011;42052;41.634;-0.946;2023-03-21T06:00:34;2.20;;;1.20;;
56171;SDS011;42052;41.634;-0.946;2023-03-21T06:03:20;1.75;;;1.27;;
56171;SDS011;42052;41.634;-0.946;2023-03-21T06:06:07;2.58;;;1.38;;
56171;SDS011;42052;41.634;-0.946;2023-03-21T06:08:53;4.93;;;1.50;;
56171;SDS011;42052;41.634;-0.946;2023-03-21T06:11:39;2.42;;;1.35;;
56171;SDS011;42052;41.634;-0.946;2023-03-21T06:14:31;1.95;;;1.40;;
56171;SDS011;42052;41.634;-0.946;2023-03-21T06:17:17;1.80;;;1.20;;
56171;SDS011;42052;41.634;-0.946;2023-03-21T06:20:04;4.50;;;1.45;;
56171;SDS011;42052;41.634;-0.946;2023-03-21T06:22:51;1.90;;;1.40;;
56171;SDS011;42052;41.634;-0.946;2023-03-21T06:25:37;2.65;;;1.50;;
56171;SDS011;42052;41.634;-0.946;2023-03-21T06:28:23;2.47;;;1.40;;
56171;SDS011;42052;41.634;-0.946;2023-03-21T06:31:10;1.88;;;1.38;;
56171;SDS011;42052;41.634;-0.946;2023-03-21T06:33:56;2.83;;;1.38;;
56171;SDS011;42052;41.634;-0.946;2023-03-21T06:36:42;1.58;;;1.30;;
56171;SDS011;42052;41.634;-0.946;2023-03-21T06:39:29;2.28;;;1.60;;
56171;SDS011;42052;41.634;-0.946;2023-03-21T06:42:15;3.05;;;1.20;;
56171;SDS011;42052;41.634;-0.946;2023-03-21T06:45:02;2.22;;;1.25;;
56171;SDS011;42052;41.634;-0.946;2023-03-21T06:47:48;3.03;;;1.50;;
56171;SDS011;42052;41.634;-0.946;2023-03-21T06:50:34;3.28;;;1.30;;
56171;SDS011;42052;41.634;-0.946;2023-03-21T06:53:21;1.92;;;1.60;;
56171;SDS011;42052;41.634;-0.946;2023-03-21T06:56:12;1.65;;;1.40;;
56171;SDS011;42052;41.634;-0.946;2023-03-21T06:58:59;2.13;;;1.60;;
56171;SDS011;42052;41.634;-0.946;2023-03-21T07:01:46;2.80;;;1.70;;
56171;SDS011;42052;41.634;-0.946;2023-03-21T07:04:33;2.63;;;1.80;;
56171;SDS011;42052;41.634;-0.946;2023-03-21T07:07:19;2.58;;;1.50;;
56171;SDS011;42052;41.634;-0.946;2023-03-21T07:10:10;2.28;;;1.50;;
56171;SDS011;42052;41.634;-0.946;2023-03-21T07:12:59;3.30;;;1.75;;
56171;SDS011;42052;41.634;-0.946;2023-03-21T07:15:45;2.13;;;1.65;;
56171;SDS011;42052;41.634;-0.946;2023-03-21T07:18:31;1.67;;;1.45;;
56171;SDS011;42052;41.634;-0.946;2023-03-21T07:21:18;2.88;;;1.80;;
56171;SDS011;42052;41.634;-0.946;2023-03-21T07:24:05;2.55;;;1.58;;
56171;SDS011;42052;41.634;-0.946;2023-03-21T07:26:51;3.00;;;1.65;;
56171;SDS011;42052;41.634;-0.946;2023-03-21T07:29:37;2.15;;;1.40;;
56171;SDS011;42052;41.634;-0.946;2023-03-21T07:32:24;2.45;;;1.70;;
56171;SDS011;42052;41.634;-0.946;2023-03-21T07:35:15;2.53;;;1.70;;
56171;SDS011;42052;41.634;-0.946;2023-03-21T07:38:03;3.67;;;1.70;;
56171;SDS011;42052;41.634;-0.946;2023-03-21T07:40:49;2.30;;;1.60;;
56171;SDS011;42052;41.634;-0.946;2023-03-21T07:43:36;2.70;;;1.85;;
56171;SDS011;42052;41.634;-0.946;2023-03-21T07:46:22;4.85;;;1.58;;
56171;SDS011;42052;41.634;-0.946;2023-03-21T07:49:08;2.10;;;1.70;;
56171;SDS011;42052;41.634;-0.946;2023-03-21T07:51:55;3.55;;;1.70;;
56171;SDS011;42052;41.634;-0.946;2023-03-21T07:54:41;3.50;;;1.80;;
56171;SDS011;42052;41.634;-0.946;2023-03-21T07:57:27;2.83;;;1.73;;
56171;SDS011;42052;41.634;-0.946;2023-03-21T08:00:13;2.53;;;1.80;;
56171;SDS011;42052;41.634;-0.946;2023-03-21T08:03:07;2.53;;;1.55;;
56171;SDS011;42052;41.634;-0.946;2023-03-21T08:05:54;3.60;;;1.77;;
56171;SDS011;42052;41.634;-0.946;2023-03-21T08:08:40;2.97;;;1.73;;
56171;SDS011;42052;41.634;-0.946;2023-03-21T08:11:27;2.45;;;1.80;;
56171;SDS011;42052;41.634;-0.946;2023-03-21T08:14:15;3.50;;;1.77;;
56171;SDS011;42052;41.634;-0.946;2023-03-21T08:17:05;2.15;;;1.70;;
56171;SDS011;42052;41.634;-0.946;2023-03-21T08:19:52;2.78;;;1.55;;
56171;SDS011;42052;41.634;-0.946;2023-03-21T08:22:39;4.07;;;1.73;;
56171;SDS011;42052;41.634;-0.946;2023-03-21T08:25:25;2.53;;;1.70;;
56171;SDS011;42052;41.634;-0.946;2023-03-21T08:28:12;2.63;;;1.60;;
56171;SDS011;42052;41.634;-0.946;2023-03-21T08:30:58;2.85;;;1.80;;
56171;SDS011;42052;41.634;-0.946;2023-03-21T08:33:44;5.95;;;1.70;;
56171;SDS011;42052;41.634;-0.946;2023-03-21T08:36:31;3.40;;;1.77;;
56171;SDS011;42052;41.634;-0.946;2023-03-21T08:39:18;4.88;;;1.75;;
56171;SDS011;42052;41.634;-0.946;2023-03-21T08:42:06;2.30;;;1.65;;
56171;SDS011;42052;41.634;-0.946;2023-03-21T08:44:52;3.90;;;1.80;;
56171;SDS011;42052;41.634;-0.946;2023-03-21T08:47:38;3.60;;;1.77;;
56171;SDS011;42052;41.634;-0.946;2023-03-21T08:50:25;2.45;;;1.75;;
56171;SDS011;42052;41.634;-0.946;2023-03-21T08:53:13;2.85;;;1.92;;
56171;SDS011;42052;41.634;-0.946;2023-03-21T08:56:00;4.13;;;1.60;;
56171;SDS011;42052;41.634;-0.946;2023-03-21T08:58:46;3.30;;;1.70;;
56171;SDS011;42052;41.634;-0.946;2023-03-21T09:01:34;2.38;;;1.50;;
56171;SDS011;42052;41.634;-0.946;2023-03-21T09:04:20;2.75;;;1.73;;
56171;SDS011;42052;41.634;-0.946;2023-03-21T09:07:06;3.38;;;1.67;;
56171;SDS011;42052;41.634;-0.946;2023-03-21T09:09:52;3.05;;;1.63;;
56171;SDS011;42052;41.634;-0.946;2023-03-21T09:12:38;3.35;;;1.83;;
56171;SDS011;42052;41.634;-0.946;2023-03-21T09:15:26;3.47;;;2.00;;
56171;SDS011;42052;41.634;-0.946;2023-03-21T09:18:13;3.85;;;1.80;;
56171;SDS011;42052;41.634;-0.946;2023-03-21T09:21:00;3.10;;;2.00;;
56171;SDS011;42052;41.634;-0.946;2023-03-21T09:23:56;2.22;;;1.70;;
56171;SDS011;42052;41.634;-0.946;2023-03-21T09:26:44;4.28;;;2.03;;
56171;SDS011;42052;41.634;-0.946;2023-03-21T09:29:30;3.05;;;1.77;;
56171;SDS011;42052;41.634;-0.946;2023-03-21T09:32:18;5.47;;;2.08;;
56171;SDS011;42052;41.634;-0.946;2023-03-21T09:35:04;3.45;;;1.92;;
56171;SDS011;42052;41.634;-0.946;2023-03-21T09:37:52;4.22;;;1.65;;
56171;SDS011;42052;41.634;-0.946;2023-03-21T09:43:44;2.97;;;1.60;;
56171;SDS011;42052;41.634;-0.946;2023-03-21T09:46:50;2.47;;;1.60;;
56171;SDS011;42052;41.634;-0.946;2023-03-21T09:49:41;4.20;;;1.80;;
56171;SDS011;42052;41.634;-0.946;2023-03-21T09:55:31;3.03;;;1.77;;
56171;SDS011;42052;41.634;-0.946;2023-03-21T09:58:32;3.45;;;1.80;;
56171;SDS011;42052;41.634;-0.946;2023-03-21T10:01:25;3.35;;;1.90;;
56171;SDS011;42052;41.634;-0.946;2023-03-21T10:04:18;2.78;;;1.55;;
56171;SDS011;42052;41.634;-0.946;2023-03-21T10:07:04;4.00;;;1.70;;
56171;SDS011;42052;41.634;-0.946;2023-03-21T10:09:52;2.83;;;1.80;;
56171;SDS011;42052;41.634;-0.946;2023-03-21T10:12:38;2.58;;;1.65;;
56171;SDS011;42052;41.634;-0.946;2023-03-21T10:15:25;3.22;;;1.60;;
56171;SDS011;42052;41.634;-0.946;2023-03-21T10:18:12;2.67;;;1.67;;
56171;SDS011;42052;41.634;-0.946;2023-03-21T10:21:10;3.78;;;1.67;;
56171;SDS011;42052;41.634;-0.946;2023-03-21T10:24:04;1.92;;;1.60;;
56171;SDS011;42052;41.634;-0.946;2023-03-21T10:26:51;2.80;;;1.77;;
56171;SDS011;42052;41.634;-0.946;2023-03-21T10:29:42;2.85;;;1.80;;
56171;SDS011;42052;41.634;-0.946;2023-03-21T10:32:29;2.63;;;1.65;;
56171;SDS011;42052;41.634;-0.946;2023-03-21T10:35:15;2.17;;;1.70;;
56171;SDS011;42052;41.634;-0.946;2023-03-21T10:38:03;2.83;;;1.80;;
56171;SDS011;42052;41.634;-0.946;2023-03-21T10:40:50;2.50;;;1.60;;
56171;SDS011;42052;41.634;-0.946;2023-03-21T10:43:37;2.25;;;1.60;;
56171;SDS011;42052;41.634;-0.946;2023-03-21T10:46:25;3.53;;;1.42;;
56171;SDS011;42052;41.634;-0.946;2023-03-21T10:49:14;2.13;;;1.60;;
56171;SDS011;42052;41.634;-0.946;2023-03-21T10:52:04;5.05;;;2.10;;
56171;SDS011;42052;41.634;-0.946;2023-03-21T10:57:58;2.35;;;1.90;;
56171;SDS011;42052;41.634;-0.946;2023-03-21T11:00:56;2.55;;;1.52;;
56171;SDS011;42052;41.634;-0.946;2023-03-21T11:03:46;2.55;;;1.67;;
56171;SDS011;42052;41.634;-0.946;2023-03-21T11:06:35;2.92;;;1.80;;
56171;SDS011;42052;41.634;-0.946;2023-03-21T11:09:25;3.70;;;1.80;;
56171;SDS011;42052;41.634;-0.946;2023-03-21T11:18:21;2.50;;;1.80;;
56171;SDS011;42052;41.634;-0.946;2023-03-21T11:21:09;4.93;;;1.67;;
56171;SDS011;42052;41.634;-0.946;2023-03-21T11:23:57;2.70;;;1.90;;
56171;SDS011;42052;41.634;-0.946;2023-03-21T11:26:44;2.42;;;1.55;;
56171;SDS011;42052;41.634;-0.946;2023-03-21T11:32:23;2.83;;;1.80;;
56171;SDS011;42052;41.634;-0.946;2023-03-21T11:35:24;3.22;;;1.80;;
56171;SDS011;42052;41.634;-0.946;2023-03-21T11:38:24;2.22;;;1.63;;
56171;SDS011;42052;41.634;-0.946;2023-03-21T11:41:29;2.50;;;2.00;;
56171;SDS011;42052;41.634;-0.946;2023-03-21T11:44:27;2.72;;;1.77;;
56171;SDS011;42052;41.634;-0.946;2023-03-21T11:47:15;2.65;;;1.80;;
56171;SDS011;42052;41.634;-0.946;2023-03-21T11:50:04;2.97;;;1.80;;
56171;SDS011;42052;41.634;-0.946;2023-03-21T11:53:30;2.28;;;1.70;;
56171;SDS011;42052;41.634;-0.946;2023-03-21T11:56:37;2.30;;;1.70;;
56171;SDS011;42052;41.634;-0.946;2023-03-21T12:05:45;3.10;;;1.90;;
56171;SDS011;42052;41.634;-0.946;2023-03-21T12:15:04;3.03;;;2.03;;
56171;SDS011;42052;41.634;-0.946;2023-03-21T12:17:59;3.50;;;1.60;;
56171;SDS011;42052;41.634;-0.946;2023-03-21T12:23:57;3.53;;;1.92;;
56171;SDS011;42052;41.634;-0.946;2023-03-21T12:26:56;3.30;;;1.90;;
56171;SDS011;42052;41.634;-0.946;2023-03-21T12:30:11;3.10;;;2.10;;
56171;SDS011;42052;41.634;-0.946;2023-03-21T12:33:08;2.92;;;1.88;;
56171;SDS011;42052;41.634;-0.946;2023-03-21T12:39:40;3.00;;;2.10;;
56171;SDS011;42052;41.634;-0.946;2023-03-21T12:45:23;2.80;;;1.90;;
56171;SDS011;42052;41.634;-0.946;2023-03-21T12:51:37;2.35;;;1.88;;
56171;SDS011;42052;41.634;-0.946;2023-03-21T12:54:30;2.90;;;2.00;;
56171;SDS011;42052;41.634;-0.946;2023-03-21T13:00:27;4.07;;;1.90;;
56171;SDS011;42052;41.634;-0.946;2023-03-21T13:03:25;2.78;;;1.90;;
56171;SDS011;42052;41.634;-0.946;2023-03-21T13:06:13;5.25;;;2.00;;
56171;SDS011;42052;41.634;-0.946;2023-03-21T13:09:05;4.07;;;1.88;;
56171;SDS011;42052;41.634;-0.946;2023-03-21T13:12:02;3.85;;;2.00;;
56171;SDS011;42052;41.634;-0.946;2023-03-21T13:18:12;4.35;;;2.25;;
56171;SDS011;42052;41.634;-0.946;2023-03-21T13:30:22;3.87;;;2.10;;
56171;SDS011;42052;41.634;-0.946;2023-03-21T13:33:12;3.30;;;2.00;;
56171;SDS011;42052;41.634;-0.946;2023-03-21T13:36:05;5.95;;;2.47;;
56171;SDS011;42052;41.634;-0.946;2023-03-21T13:38:53;6.55;;;2.50;;
56171;SDS011;42052;41.634;-0.946;2023-03-21T13:41:49;3.50;;;2.30;;
56171;SDS011;42052;41.634;-0.946;2023-03-21T13:44:42;5.13;;;2.35;;
56171;SDS011;42052;41.634;-0.946;2023-03-21T13:47:53;4.68;;;2.45;;
56171;SDS011;42052;41.634;-0.946;2023-03-21T13:50:50;5.45;;;2.47;;
56171;SDS011;42052;41.634;-0.946;2023-03-21T13:53:43;4.97;;;2.30;;
56171;SDS011;42052;41.634;-0.946;2023-03-21T13:56:56;5.55;;;2.38;;
56171;SDS011;42052;41.634;-0.946;2023-03-21T13:59:51;5.25;;;2.58;;
56171;SDS011;42052;41.634;-0.946;2023-03-21T14:03:09;5.80;;;2.40;;
56171;SDS011;42052;41.634;-0.946;2023-03-21T14:05:59;5.22;;;2.50;;
56171;SDS011;42052;41.634;-0.946;2023-03-21T14:08:46;6.13;;;2.03;;
56171;SDS011;42052;41.634;-0.946;2023-03-21T14:11:34;6.00;;;2.30;;
56171;SDS011;42052;41.634;-0.946;2023-03-21T14:14:22;3.60;;;2.40;;
56171;SDS011;42052;41.634;-0.946;2023-03-21T14:17:19;5.30;;;2.70;;
56171;SDS011;42052;41.634;-0.946;2023-03-21T14:20:24;5.00;;;2.53;;
56171;SDS011;42052;41.634;-0.946;2023-03-21T14:23:17;5.13;;;2.90;;
56171;SDS011;42052;41.634;-0.946;2023-03-21T14:26:05;5.38;;;2.53;;
56171;SDS011;42052;41.634;-0.946;2023-03-21T14:28:51;7.13;;;2.80;;
56171;SDS011;42052;41.634;-0.946;2023-03-21T14:31:38;6.60;;;2.55;;
56171;SDS011;42052;41.634;-0.946;2023-03-21T14:34:28;5.65;;;2.58;;
56171;SDS011;42052;41.634;-0.946;2023-03-21T14:37:26;6.22;;;2.78;;
56171;SDS011;42052;41.634;-0.946;2023-03-21T14:40:24;4.53;;;2.72;;
56171;SDS011;42052;41.634;-0.946;2023-03-21T14:43:11;9.15;;;2.72;;
56171;SDS011;42052;41.634;-0.946;2023-03-21T14:45:58;5.18;;;2.70;;
56171;SDS011;42052;41.634;-0.946;2023-03-21T14:48:45;4.28;;;2.50;;
56171;SDS011;42052;41.634;-0.946;2023-03-21T14:51:31;3.55;;;2.40;;
56171;SDS011;42052;41.634;-0.946;2023-03-21T14:54:17;5.32;;;2.58;;
56171;SDS011;42052;41.634;-0.946;2023-03-21T14:57:06;5.15;;;3.00;;
56171;SDS011;42052;41.634;-0.946;2023-03-21T14:59:56;5.22;;;2.70;;
56171;SDS011;42052;41.634;-0.946;2023-03-21T15:02:46;3.97;;;2.40;;
56171;SDS011;42052;41.634;-0.946;2023-03-21T15:05:33;4.80;;;2.47;;
56171;SDS011;42052;41.634;-0.946;2023-03-21T15:08:22;4.82;;;2.92;;
56171;SDS011;42052;41.634;-0.946;2023-03-21T15:11:11;4.30;;;2.40;;
56171;SDS011;42052;41.634;-0.946;2023-03-21T15:14:02;5.03;;;2.78;;
56171;SDS011;42052;41.634;-0.946;2023-03-21T15:16:51;4.80;;;2.80;;
56171;SDS011;42052;41.634;-0.946;2023-03-21T15:19:38;4.55;;;2.53;;
56171;SDS011;42052;41.634;-0.946;2023-03-21T15:22:37;4.85;;;2.80;;
56171;SDS011;42052;41.634;-0.946;2023-03-21T15:25:27;3.85;;;2.42;;
56171;SDS011;42052;41.634;-0.946;2023-03-21T15:28:16;4.22;;;2.63;;
56171;SDS011;42052;41.634;-0.946;2023-03-21T15:31:02;4.35;;;2.60;;
56171;SDS011;42052;41.634;-0.946;2023-03-21T15:33:51;3.85;;;2.40;;
56171;SDS011;42052;41.634;-0.946;2023-03-21T15:36:45;4.63;;;2.63;;
56171;SDS011;42052;41.634;-0.946;2023-03-21T15:39:33;4.72;;;2.85;;
56171;SDS011;42052;41.634;-0.946;2023-03-21T15:42:33;4.03;;;2.40;;
56171;SDS011;42052;41.634;-0.946;2023-03-21T15:45:23;3.75;;;2.10;;
56171;SDS011;42052;41.634;-0.946;2023-03-21T15:48:11;3.70;;;2.50;;
56171;SDS011;42052;41.634;-0.946;2023-03-21T15:51:00;4.63;;;2.30;;
56171;SDS011;42052;41.634;-0.946;2023-03-21T15:53:51;3.47;;;2.47;;
56171;SDS011;42052;41.634;-0.946;2023-03-21T15:56:40;4.68;;;2.70;;
56171;SDS011;42052;41.634;-0.946;2023-03-21T15:59:34;5.18;;;2.60;;
56171;SDS011;42052;41.634;-0.946;2023-03-21T16:02:24;4.78;;;2.70;;
56171;SDS011;42052;41.634;-0.946;2023-03-21T16:14:02;4.25;;;2.80;;
56171;SDS011;42052;41.634;-0.946;2023-03-21T16:16:48;4.10;;;2.58;;
56171;SDS011;42052;41.634;-0.946;2023-03-21T16:19:35;3.75;;;2.38;;
56171;SDS011;42052;41.634;-0.946;2023-03-21T16:22:21;3.20;;;2.25;;
56171;SDS011;42052;41.634;-0.946;2023-03-21T16:25:07;3.70;;;2.50;;
56171;SDS011;42052;41.634;-0.946;2023-03-21T16:27:54;3.95;;;2.50;;
56171;SDS011;42052;41.634;-0.946;2023-03-21T16:30:41;3.47;;;2.67;;
56171;SDS011;42052;41.634;-0.946;2023-03-21T16:33:28;3.45;;;2.45;;
56171;SDS011;42052;41.634;-0.946;2023-03-21T16:36:15;4.05;;;2.80;;
56171;SDS011;42052;41.634;-0.946;2023-03-21T16:39:14;5.70;;;3.00;;
56171;SDS011;42052;41.634;-0.946;2023-03-21T16:42:02;3.40;;;2.40;;
56171;SDS011;42052;41.634;-0.946;2023-03-21T16:44:49;3.83;;;2.53;;
56171;SDS011;42052;41.634;-0.946;2023-03-21T16:47:35;4.95;;;2.90;;
56171;SDS011;42052;41.634;-0.946;2023-03-21T16:53:11;4.60;;;2.53;;
56171;SDS011;42052;41.634;-0.946;2023-03-21T16:55:57;4.38;;;2.70;;
56171;SDS011;42052;41.634;-0.946;2023-03-21T16:58:46;3.97;;;2.75;;
56171;SDS011;42052;41.634;-0.946;2023-03-21T17:01:33;4.15;;;2.72;;
56171;SDS011;42052;41.634;-0.946;2023-03-21T17:04:22;3.72;;;2.63;;
56171;SDS011;42052;41.634;-0.946;2023-03-21T17:07:10;3.35;;;2.42;;
56171;SDS011;42052;41.634;-0.946;2023-03-21T17:10:00;3.88;;;2.50;;
56171;SDS011;42052;41.634;-0.946;2023-03-21T17:12:46;3.63;;;2.70;;
56171;SDS011;42052;41.634;-0.946;2023-03-21T17:15:33;4.05;;;2.47;;
56171;SDS011;42052;41.634;-0.946;2023-03-21T17:18:19;3.60;;;2.38;;
56171;SDS011;42052;41.634;-0.946;2023-03-21T17:21:12;4.05;;;2.45;;
56171;SDS011;42052;41.634;-0.946;2023-03-21T17:24:06;3.53;;;2.38;;
56171;SDS011;42052;41.634;-0.946;2023-03-21T17:26:53;2.88;;;2.38;;
56171;SDS011;42052;41.634;-0.946;2023-03-21T17:29:39;4.20;;;2.42;;
56171;SDS011;42052;41.634;-0.946;2023-03-21T17:32:25;3.53;;;2.30;;
56171;SDS011;42052;41.634;-0.946;2023-03-21T17:35:12;3.75;;;2.45;;
56171;SDS011;42052;41.634;-0.946;2023-03-21T17:37:59;4.35;;;2.80;;
56171;SDS011;42052;41.634;-0.946;2023-03-21T17:40:45;4.25;;;2.60;;
56171;SDS011;42052;41.634;-0.946;2023-03-21T17:43:31;3.25;;;2.50;;
56171;SDS011;42052;41.634;-0.946;2023-03-21T17:46:18;4.03;;;2.63;;
56171;SDS011;42052;41.634;-0.946;2023-03-21T17:49:06;3.95;;;2.55;;
56171;SDS011;42052;41.634;-0.946;2023-03-21T17:51:57;3.38;;;2.60;;
56171;SDS011;42052;41.634;-0.946;2023-03-21T17:54:43;3.30;;;2.50;;
56171;SDS011;42052;41.634;-0.946;2023-03-21T17:57:29;3.42;;;2.40;;
56171;SDS011;42052;41.634;-0.946;2023-03-21T18:00:17;5.43;;;2.60;;
56171;SDS011;42052;41.634;-0.946;2023-03-21T18:03:07;3.58;;;2.50;;
56171;SDS011;42052;41.634;-0.946;2023-03-21T18:05:53;2.97;;;2.30;;
56171;SDS011;42052;41.634;-0.946;2023-03-21T18:08:39;3.00;;;2.47;;
56171;SDS011;42052;41.634;-0.946;2023-03-21T18:11:26;3.75;;;2.30;;
56171;SDS011;42052;41.634;-0.946;2023-03-21T18:14:12;3.28;;;2.50;;
56171;SDS011;42052;41.634;-0.946;2023-03-21T18:16:58;4.63;;;2.85;;
56171;SDS011;42052;41.634;-0.946;2023-03-21T18:19:44;2.95;;;2.20;;
56171;SDS011;42052;41.634;-0.946;2023-03-21T18:22:32;3.22;;;2.17;;
56171;SDS011;42052;41.634;-0.946;2023-03-21T18:25:18;3.78;;;2.50;;